Time;durP1;ratioP1;P1;durP2;ratioP2;P2;SDS_P1;SDS_P2;PMS_P1;PMS_P2;Temp;Humidity;BMP_temperature;BMP_pressure;BME280_temperature;BME280_humidity;BME280_pressure;Samples;Min_cycle;Max_cycle;Signal;HPM_P1;HPM_P2
2021/07/24 00:01:09;;;;;;;6.20;5.60;;;;;;;35.05;22.21;94476.06;5075407;28;20290;-70
2021/07/24 00:03:36;;;;;;;6.03;5.53;;;;;;;35.00;22.49;94473.16;5076886;28;20045;-71
2021/07/24 00:06:04;;;;;;;6.93;5.53;;;;;;;35.16;22.10;94472.97;5076368;28;20051;-76
2021/07/24 00:08:31;;;;;;;6.32;5.72;;;;;;;35.28;21.94;94472.16;5076240;28;20051;-76
2021/07/24 00:11:05;;;;;;;6.22;5.72;;;;;;;35.40;21.79;94474.06;5079572;28;20454;-73
2021/07/24 00:13:34;;;;;;;5.88;5.38;;;;;;;35.03;22.18;94470.31;5078878;28;20052;-73
2021/07/24 00:16:02;;;;;;;5.70;5.13;;;;;;;35.01;21.97;94477.38;5076337;28;20048;-75
2021/07/24 00:18:29;;;;;;;6.05;5.20;;;;;;;34.63;22.36;94472.81;5075254;28;20048;-71
2021/07/24 00:20:56;;;;;;;6.50;5.63;;;;;;;34.97;22.23;94474.03;5080311;28;20366;-72
2021/07/24 00:23:23;;;;;;;6.03;5.30;;;;;;;34.59;22.68;94477.59;5096382;28;20056;-71
2021/07/24 00:25:50;;;;;;;7.50;5.53;;;;;;;34.73;22.51;94477.13;5096313;28;20047;-70
2021/07/24 00:28:18;;;;;;;6.85;6.25;;;;;;;34.64;22.50;94479.75;5095133;28;20044;-71
2021/07/24 00:30:45;;;;;;;6.50;5.93;;;;;;;34.61;22.36;94470.56;5095949;28;20040;-72
2021/07/24 00:33:19;;;;;;;6.43;5.45;;;;;;;34.59;22.45;94472.91;5082623;28;20048;-75
2021/07/24 00:35:46;;;;;;;6.10;5.50;;;;;;;34.82;22.18;94474.47;5076390;28;20052;-74
2021/07/24 00:38:13;;;;;;;6.15;5.55;;;;;;;34.56;22.41;94473.78;5076365;28;20060;-71
2021/07/24 00:40:44;;;;;;;5.63;5.13;;;;;;;34.58;22.68;94478.78;5082158;28;20367;-70
2021/07/24 00:43:11;;;;;;;;;;;;;;;34.69;22.52;94473.78;5086945;28;20043;-74
2021/07/24 00:45:46;;;;;;;5.88;5.30;;;;;;;34.37;22.82;94476.78;5095658;28;19915;-72
2021/07/24 00:48:20;;;;;;;6.25;5.68;;;;;;;34.52;22.74;94472.41;5076525;28;20041;-72
2021/07/24 00:51:38;;;;;;;6.03;5.43;;;;;;;34.33;22.76;94477.59;5075696;28;20048;-72
2021/07/24 00:54:05;;;;;;;6.38;5.35;;;;;;;34.42;22.66;94466.13;5094627;28;20040;-73
2021/07/24 00:56:32;;;;;;;6.38;5.82;;;;;;;34.47;22.75;94470.25;5096708;28;20047;-75
2021/07/24 00:58:59;;;;;;;5.90;5.32;;;;;;;34.49;22.51;94465.13;5094698;28;20051;-72
2021/07/24 01:01:26;;;;;;;6.22;5.20;;;;;;;34.42;22.61;94468.09;5096029;28;20446;-71
2021/07/24 01:03:54;;;;;;;6.15;5.55;;;;;;;34.57;22.51;94466.41;5095553;28;20048;-71
2021/07/24 01:06:23;;;;;;;6.78;5.75;;;;;;;34.56;22.70;94467.59;5093947;28;20070;-74
2021/07/24 01:08:50;;;;;;;5.95;5.35;;;;;;;34.32;23.20;94469.91;5095130;28;20470;-69
2021/07/24 01:11:18;;;;;;;5.82;5.30;;;;;;;34.38;22.98;94467.44;5094716;28;20052;-73
2021/07/24 01:13:45;;;;;;;5.63;5.13;;;;;;;34.38;22.88;94462.78;5077840;28;20048;-71
2021/07/24 01:16:13;;;;;;;5.50;5.00;;;;;;;34.36;22.81;94459.00;5078737;28;20058;-72
2021/07/24 01:18:42;;;;;;;6.68;5.63;;;;;;;34.48;22.57;94455.47;5094567;28;20052;-77
2021/07/24 01:21:29;;;;;;;5.93;5.43;;;;;;;34.40;22.99;94451.50;5094058;28;20055;-71
2021/07/24 01:23:59;;;;;;;5.43;4.93;;;;;;;34.25;23.16;94464.72;5094014;28;20051;-75
2021/07/24 01:26:34;;;;;;;5.80;5.30;;;;;;;34.18;22.98;94462.22;5095829;28;20082;-71
2021/07/24 01:29:03;;;;;;;5.85;5.28;;;;;;;34.42;22.84;94465.38;5094044;28;20032;-75
2021/07/24 01:31:30;;;;;;;5.82;5.30;;;;;;;34.49;22.45;94459.72;5094910;28;20434;-72
2021/07/24 01:33:59;;;;;;;6.55;5.50;;;;;;;34.19;22.98;94461.78;5094155;28;20477;-71
2021/07/24 01:36:27;;;;;;;6.38;5.60;;;;;;;34.14;22.88;94456.94;5095648;28;20335;-76
2021/07/24 01:38:54;;;;;;;6.05;5.55;;;;;;;33.96;23.24;94456.72;5096365;28;20055;-73
2021/07/24 01:41:22;;;;;;;6.00;5.40;;;;;;;34.10;23.06;94459.00;5077968;28;20043;-75
2021/07/24 01:43:49;;;;;;;6.28;5.50;;;;;;;33.88;23.29;94458.88;5090375;28;20071;-73
2021/07/24 01:46:17;;;;;;;5.95;5.45;;;;;;;34.12;22.82;94462.03;5074695;28;20047;-70
2021/07/24 01:54:54;;;;;;;6.18;5.57;;;;;;;33.93;23.05;94452.91;5070779;28;20078;-70
2021/07/24 01:57:22;;;;;;;6.15;5.55;;;;;;;34.02;23.04;94452.25;5095281;28;20052;-73
2021/07/24 02:00:00;;;;;;;6.70;5.93;;;;;;;33.72;23.30;94456.25;5078353;28;20075;-71
2021/07/24 02:02:27;;;;;;;6.33;5.73;;;;;;;33.71;23.46;94462.84;5094625;28;20048;-71
2021/07/24 02:04:57;;;;;;;6.07;5.50;;;;;;;33.87;23.05;94445.78;5062909;28;20052;-70
2021/07/24 02:07:26;;;;;;;6.40;5.80;;;;;;;33.93;22.95;94446.75;5057310;28;20044;-70
2021/07/24 02:09:58;;;;;;;5.88;5.38;;;;;;;33.92;22.72;94447.94;5073483;28;20049;-69
2021/07/24 02:12:45;;;;;;;7.03;5.93;;;;;;;33.90;23.09;94453.78;5073824;28;20055;-71
2021/07/24 02:15:13;;;;;;;6.07;5.50;;;;;;;34.00;22.96;94449.22;5074401;28;20051;-76
2021/07/24 02:17:46;;;;;;;6.25;5.65;;;;;;;33.91;23.08;94457.25;5089352;28;20485;-74
2021/07/24 02:20:14;;;;;;;7.97;5.40;;;;;;;33.57;23.11;94450.50;5077185;28;20055;-73
2021/07/24 02:22:42;;;;;;;6.18;5.57;;;;;;;33.60;23.06;94460.47;5077015;28;20048;-76
2021/07/24 02:25:10;;;;;;;6.05;5.55;;;;;;;33.56;23.54;94459.78;5078024;28;20055;-74
2021/07/24 02:27:42;;;;;;;5.80;5.20;;;;;;;33.50;23.58;94472.34;5073812;28;20044;-76
2021/07/24 02:30:11;;;;;;;6.25;5.65;;;;;;;33.49;23.26;94460.00;5076470;28;20044;-76
2021/07/24 02:32:38;;;;;;;6.05;5.55;;;;;;;33.41;23.62;94458.69;5082579;28;20048;-71
2021/07/24 02:35:05;;;;;;;6.55;5.93;;;;;;;33.65;22.93;94461.88;5073591;28;20087;-73
2021/07/24 02:37:37;;;;;;;6.70;5.95;;;;;;;33.56;23.38;94470.63;5073829;28;20047;-73
2021/07/24 02:40:06;;;;;;;7.63;6.20;;;;;;;33.91;23.11;94468.09;5073854;28;20443;-71
2021/07/24 02:42:36;;;;;;;6.25;5.75;;;;;;;33.57;23.41;94466.75;5084997;28;20056;-70
2021/07/24 02:45:05;;;;;;;6.63;5.93;;;;;;;33.77;23.19;94469.25;5093011;28;20044;-76
2021/07/24 02:47:32;;;;;;;7.03;5.95;;;;;;;33.28;23.79;94463.28;5077364;28;20044;-71
2021/07/24 02:49:59;;;;;;;6.32;5.72;;;;;;;33.34;23.38;94465.09;5074218;28;20510;-70
2021/07/24 02:52:27;;;;;;;6.68;5.88;;;;;;;33.31;23.16;94470.56;5073305;28;20458;-69
2021/07/24 02:54:55;;;;;;;6.28;5.60;;;;;;;33.47;22.83;94467.81;5073299;28;20045;-71
2021/07/24 02:57:22;;;;;;;9.35;5.95;;;;;;;33.38;23.13;94467.69;5072440;28;20056;-70
2021/07/24 02:59:49;;;;;;;7.88;6.57;;;;;;;33.37;23.20;94469.63;5073934;28;20040;-72
2021/07/24 03:02:17;;;;;;;6.72;6.13;;;;;;;33.28;23.07;94466.00;5073919;28;20048;-69
2021/07/24 03:04:45;;;;;;;7.30;6.57;;;;;;;33.41;23.01;94464.88;5073842;28;20693;-70
2021/07/24 03:07:12;;;;;;;7.43;6.07;;;;;;;33.28;23.46;94468.69;5083071;28;20114;-71
2021/07/24 03:09:39;;;;;;;6.82;6.03;;;;;;;33.39;22.97;94472.69;5094041;28;20055;-74
2021/07/24 03:12:07;;;;;;;6.15;5.55;;;;;;;33.26;23.48;94469.13;5094699;28;20055;-75
2021/07/24 03:14:34;;;;;;;7.10;5.72;;;;;;;33.39;23.01;94471.91;5094581;28;20427;-70
2021/07/24 03:17:01;;;;;;;6.55;5.93;;;;;;;33.11;23.37;94482.31;5083294;28;20052;-71
2021/07/24 03:19:28;;;;;;;6.50;5.32;;;;;;;33.18;23.57;94473.22;5089240;28;20047;-71
2021/07/24 03:21:55;;;;;;;6.60;5.90;;;;;;;33.29;23.13;94467.50;5094099;28;20474;-72
2021/07/24 03:24:23;;;;;;;6.70;5.72;;;;;;;33.41;23.19;94469.53;5093308;28;20458;-70
2021/07/24 03:26:50;;;;;;;6.25;5.60;;;;;;;33.42;23.13;94468.34;5094289;28;20403;-70
2021/07/24 03:29:17;;;;;;;6.63;5.68;;;;;;;33.18;23.52;94472.47;5093718;28;20050;-73
2021/07/24 03:31:45;;;;;;;6.93;6.00;;;;;;;33.38;23.12;94473.09;5092956;28;20048;-70
2021/07/24 03:34:12;;;;;;;6.57;5.85;;;;;;;33.37;23.19;94479.72;5093091;28;20067;-70
2021/07/24 03:36:39;;;;;;;7.15;6.45;;;;;;;33.38;23.31;94481.22;5093848;28;20051;-69
2021/07/24 03:39:06;;;;;;;7.97;6.32;;;;;;;33.32;23.26;94480.25;5080971;28;20044;-69
2021/07/24 03:41:35;;;;;;;7.47;5.93;;;;;;;33.34;22.92;94484.06;5073496;28;20048;-69
2021/07/24 03:44:03;;;;;;;6.88;6.18;;;;;;;33.28;22.94;94482.25;5076124;28;20386;-73
2021/07/24 03:46:30;;;;;;;7.13;6.43;;;;;;;33.26;23.48;94484.63;5076905;28;20370;-70
2021/07/24 03:48:57;;;;;;;6.80;6.15;;;;;;;33.21;23.11;94487.88;5088083;28;20040;-71
2021/07/24 03:51:24;;;;;;;7.82;6.65;;;;;;;33.32;23.21;94482.97;5096990;28;20052;-70
2021/07/24 03:53:51;;;;;;;6.47;5.78;;;;;;;33.27;23.60;94481.47;5096555;28;20044;-70
2021/07/24 03:56:20;;;;;;;6.63;5.97;;;;;;;33.15;23.44;94484.16;5097005;28;20059;-73
2021/07/24 03:58:49;;;;;;;6.85;5.95;;;;;;;33.39;22.93;94493.59;5096845;28;20082;-71
2021/07/24 04:01:16;;;;;;;6.50;5.72;;;;;;;33.18;23.41;94491.44;5097121;28;20048;-75
2021/07/24 04:03:43;;;;;;;7.22;5.78;;;;;;;33.45;23.43;94497.28;5092223;28;20049;-76
2021/07/24 04:06:25;;;;;;;7.63;5.55;;;;;;;33.19;23.31;94495.66;5076748;28;20393;-70
2021/07/24 04:08:55;;;;;;;6.30;5.72;;;;;;;33.46;23.31;94498.81;5076934;28;20584;-71
2021/07/24 04:11:22;;;;;;;6.10;5.40;;;;;;;33.07;24.20;94506.03;5076132;28;20048;-71
2021/07/24 04:13:49;;;;;;;6.65;5.63;;;;;;;33.20;24.00;94497.94;5075497;28;20045;-70
2021/07/24 04:16:17;;;;;;;6.93;5.43;;;;;;;33.31;23.67;94508.47;5079933;28;20054;-70
2021/07/24 04:18:44;;;;;;;6.50;5.68;;;;;;;33.32;24.03;94504.63;5096977;28;20047;-76
2021/07/24 04:21:13;;;;;;;6.47;5.85;;;;;;;33.07;24.46;94511.44;5097042;28;20078;-70
2021/07/24 04:23:40;;;;;;;7.05;5.43;;;;;;;33.10;24.29;94502.47;5096473;28;20047;-69
2021/07/24 04:26:08;;;;;;;6.40;5.80;;;;;;;33.10;24.53;94516.00;5096559;28;20048;-76
2021/07/24 04:28:35;;;;;;;6.00;5.40;;;;;;;33.60;23.68;94509.25;5097099;28;20035;-77
2021/07/24 04:31:02;;;;;;;6.38;5.53;;;;;;;33.41;23.92;94512.88;5097012;28;20051;-70
2021/07/24 04:33:29;;;;;;;5.38;4.88;;;;;;;33.51;24.31;94509.09;5095140;28;20473;-72
2021/07/24 04:35:57;;;;;;;5.75;5.15;;;;;;;33.47;23.88;94505.75;5075696;28;20072;-70
2021/07/24 04:38:24;;;;;;;8.27;5.60;;;;;;;33.50;24.08;94504.88;5076555;28;20087;-70
2021/07/24 04:40:51;;;;;;;6.32;5.50;;;;;;;33.63;23.48;94508.38;5076591;28;20040;-69
2021/07/24 04:43:19;;;;;;;6.22;5.25;;;;;;;33.62;23.13;94501.44;5076428;28;20048;-71
2021/07/24 04:45:46;;;;;;;6.20;5.60;;;;;;;33.38;24.12;94503.66;5075283;28;20055;-74
2021/07/24 04:48:13;;;;;;;5.85;5.35;;;;;;;33.76;23.14;94497.53;5096295;28;20040;-74
2021/07/24 04:50:47;;;;;;;6.18;5.45;;;;;;;33.87;23.38;94505.41;5082442;28;20047;-71
2021/07/24 04:53:15;;;;;;;6.10;5.50;;;;;;;33.90;23.34;94508.00;5075990;28;20055;-77
2021/07/24 04:55:42;;;;;;;5.72;5.18;;;;;;;34.01;23.12;94513.09;5075662;28;20040;-70
2021/07/24 04:58:10;;;;;;;7.30;5.68;;;;;;;34.01;23.19;94515.81;5075735;28;20061;-70
2021/07/24 05:00:42;;;;;;;6.65;5.70;;;;;;;34.12;23.57;94521.69;5076133;28;20442;-69
2021/07/24 05:03:12;;;;;;;5.68;4.97;;;;;;;34.22;23.71;94520.59;5075493;28;20451;-70
2021/07/24 05:05:40;;;;;;;6.25;5.32;;;;;;;34.38;23.23;94516.28;5075486;28;20063;-70
2021/07/24 05:08:11;;;;;;;6.40;5.15;;;;;;;34.33;23.04;94518.31;5078927;28;20059;-70
2021/07/24 05:10:38;;;;;;;5.97;4.90;;;;;;;34.41;23.25;94516.19;5094640;28;20043;-69
2021/07/24 05:13:06;;;;;;;5.22;4.72;;;;;;;34.66;22.47;94515.38;5095953;28;20044;-72
2021/07/24 05:15:33;;;;;;;5.68;5.18;;;;;;;34.42;22.78;94519.66;5095913;28;20040;-73
2021/07/24 05:18:00;;;;;;;5.97;5.18;;;;;;;34.40;23.13;94522.03;5076096;28;20363;-69
2021/07/24 05:20:29;;;;;;;7.45;5.28;;;;;;;34.30;23.00;94521.88;5075267;28;20040;-73
2021/07/24 05:22:57;;;;;;;6.80;5.05;;;;;;;34.69;22.46;94517.22;5075526;28;20099;-69
2021/07/24 05:25:24;;;;;;;7.60;5.30;;;;;;;34.66;22.49;94512.66;5089097;28;20465;-70
2021/07/24 05:27:51;;;;;;;6.43;5.47;;;;;;;34.88;22.55;94521.66;5094346;28;20047;-76
2021/07/24 05:30:19;;;;;;;9.57;7.03;;;;;;;34.82;22.68;94523.34;5095963;28;20051;-69
2021/07/24 05:32:47;;;;;;;7.65;6.93;;;;;;;35.02;22.21;94514.97;5083042;28;20040;-71
2021/07/24 05:35:14;;;;;;;8.15;6.43;;;;;;;35.21;21.89;94515.88;5072836;28;20347;-71
2021/07/24 05:37:41;;;;;;;7.65;6.47;;;;;;;34.99;22.29;94512.38;5072638;28;20455;-76
2021/07/24 05:40:09;;;;;;;8.07;6.13;;;;;;;35.05;22.11;94513.31;5074904;28;20052;-70
2021/07/24 05:42:36;;;;;;;7.05;5.85;;;;;;;35.06;22.21;94515.59;5077116;28;20074;-57
2021/07/24 05:45:04;;;;;;;8.43;6.50;;;;;;;34.21;23.33;94519.09;5081394;28;20044;-60
2021/07/24 05:47:31;;;;;;;6.80;6.20;;;;;;;34.43;23.01;94523.88;5073492;28;20059;-65
2021/07/24 05:49:59;;;;;;;8.75;6.70;;;;;;;34.38;23.19;94517.06;5074770;28;20574;-54
2021/07/24 05:52:27;;;;;;;7.10;6.40;;;;;;;34.43;23.18;94518.44;5074350;28;20052;-58
2021/07/24 05:54:54;;;;;;;7.93;6.93;;;;;;;34.48;22.96;94531.47;5074271;28;20048;-53
2021/07/24 05:57:21;;;;;;;8.13;6.35;;;;;;;34.67;23.16;94519.59;5074819;28;20055;-63
2021/07/24 05:59:48;;;;;;;6.70;6.00;;;;;;;34.53;22.82;94517.34;5073636;28;20056;-54
2021/07/24 06:02:16;;;;;;;6.35;5.75;;;;;;;34.73;22.50;94519.81;5087196;28;20052;-53
2021/07/24 06:04:43;;;;;;;7.65;5.82;;;;;;;34.81;22.38;94516.41;5090613;28;20048;-55
2021/07/24 06:07:11;;;;;;;8.07;5.63;;;;;;;34.82;22.16;94517.91;5094813;28;20051;-57
2021/07/24 06:09:38;;;;;;;8.80;5.10;;;;;;;34.79;22.08;94513.38;5094100;28;20122;-50
2021/07/24 06:12:07;;;;;;;5.63;5.13;;;;;;;34.91;22.29;94525.44;5094366;28;20083;-59
2021/07/24 06:14:34;;;;;;;8.25;5.50;;;;;;;34.99;22.10;94520.53;5093521;28;20054;-71
2021/07/24 06:17:03;;;;;;;5.38;4.88;;;;;;;35.22;22.22;94523.59;5074357;28;20048;-67
2021/07/24 06:19:30;;;;;;;7.05;4.97;;;;;;;35.28;21.25;94526.50;5074563;28;20048;-59
2021/07/24 06:21:59;;;;;;;6.90;5.13;;;;;;;35.49;21.30;94520.34;5074383;28;20374;-54
2021/07/24 06:24:26;;;;;;;5.65;5.05;;;;;;;35.68;21.21;94529.38;5074033;28;20044;-60
2021/07/24 06:26:54;;;;;;;7.55;4.78;;;;;;;35.83;21.23;94522.22;5074163;28;20048;-52
2021/07/24 06:29:22;;;;;;;5.85;4.65;;;;;;;35.87;21.27;94515.88;5074692;28;20047;-64
2021/07/24 06:31:49;;;;;;;7.05;4.63;;;;;;;36.36;20.59;94518.69;5074228;28;20126;-52
2021/07/24 06:34:16;;;;;;;6.32;4.85;;;;;;;36.07;20.52;94519.75;5073616;28;20056;-62
2021/07/24 06:36:43;;;;;;;5.30;4.78;;;;;;;36.14;20.43;94519.47;5074081;28;20051;-67
2021/07/24 06:39:10;;;;;;;5.00;4.50;;;;;;;36.05;20.33;94522.16;5073588;28;20040;-62
2021/07/24 06:41:41;;;;;;;6.30;5.28;;;;;;;36.03;20.23;94519.13;5074158;28;20052;-54
2021/07/24 06:44:08;;;;;;;6.75;5.05;;;;;;;36.03;20.80;94516.41;5073887;28;20060;-54
2021/07/24 06:46:36;;;;;;;6.40;4.65;;;;;;;36.24;20.08;94512.13;5080889;28;20056;-50
2021/07/24 06:49:03;;;;;;;5.38;4.88;;;;;;;36.31;20.01;94511.09;5094424;28;20036;-52
2021/07/24 06:51:30;;;;;;;6.45;4.68;;;;;;;36.11;19.98;94520.38;5080719;28;20447;-51
2021/07/24 06:53:57;;;;;;;7.50;4.80;;;;;;;36.27;20.22;94522.09;5073100;28;20052;-55
2021/07/24 06:56:24;;;;;;;8.70;4.82;;;;;;;36.60;20.33;94518.91;5073851;28;20447;-62
2021/07/24 06:58:51;;;;;;;7.20;5.05;;;;;;;36.71;19.77;94520.00;5074512;28;20458;-63
2021/07/24 07:01:18;;;;;;;5.10;4.60;;;;;;;37.53;19.11;94516.56;5073864;28;20386;-66
2021/07/24 07:03:45;;;;;;;6.38;4.78;;;;;;;37.88;18.93;94518.94;5073994;28;20044;-62
2021/07/24 07:06:13;;;;;;;5.30;4.80;;;;;;;37.65;19.47;94518.34;5076955;28;20052;-58
2021/07/24 07:08:41;;;;;;;6.05;4.80;;;;;;;37.74;19.66;94517.63;5081009;28;20107;-53
2021/07/24 07:11:08;;;;;;;9.50;4.97;;;;;;;37.71;19.08;94510.31;5080853;28;20481;-63
2021/07/24 07:13:35;;;;;;;6.53;4.50;;;;;;;38.00;19.30;94517.22;5077192;28;20049;-58
2021/07/24 07:16:04;;;;;;;6.40;4.63;;;;;;;37.65;19.51;94520.31;5071948;28;20063;-68
2021/07/24 07:18:31;;;;;;;5.40;4.90;;;;;;;37.48;18.64;94519.91;5075129;28;20055;-53
2021/07/24 07:20:58;;;;;;;9.07;4.82;;;;;;;38.02;19.08;94512.09;5084006;28;20048;-63
2021/07/24 07:23:26;;;;;;;8.10;4.70;;;;;;;37.39;19.69;94508.25;5097680;28;20044;-64
2021/07/24 07:25:53;;;;;;;6.10;4.93;;;;;;;37.24;19.80;94506.13;5097686;28;20052;-66
2021/07/24 07:28:21;;;;;;;7.20;5.35;;;;;;;37.54;19.28;94509.16;5098122;28;20048;-63
2021/07/24 07:30:48;;;;;;;5.50;5.00;;;;;;;37.35;18.87;94503.72;5090431;28;20048;-63
2021/07/24 07:33:15;;;;;;;7.47;5.53;;;;;;;37.56;18.99;94509.44;5077229;28;20048;-63
2021/07/24 07:35:42;;;;;;;6.45;4.93;;;;;;;37.73;18.55;94501.69;5077082;28;20052;-61
2021/07/24 07:38:09;;;;;;;5.60;4.55;;;;;;;37.80;19.24;94504.88;5075572;28;20052;-59
2021/07/24 07:40:38;;;;;;;6.45;5.00;;;;;;;37.78;18.78;94504.56;5077223;28;20366;-63
2021/07/24 07:43:08;;;;;;;6.82;5.13;;;;;;;37.85;18.68;94501.50;5082268;28;20055;-58
2021/07/24 07:45:40;;;;;;;4.70;4.28;;;;;;;38.14;18.68;94505.66;5096090;28;20047;-61
2021/07/24 07:48:08;;;;;;;5.93;4.90;;;;;;;38.07;18.35;94506.75;5078124;28;20052;-61
2021/07/24 07:50:36;;;;;;;7.38;5.47;;;;;;;37.80;18.21;94510.31;5082827;28;20040;-60
2021/07/24 07:53:04;;;;;;;12.02;5.70;;;;;;;38.94;18.12;94509.66;5075145;28;20041;-62
2021/07/24 07:55:31;;;;;;;8.07;5.80;;;;;;;38.36;18.05;94514.38;5076355;28;20362;-64
2021/07/24 07:57:58;;;;;;;8.60;5.60;;;;;;;38.68;18.25;94498.44;5076018;28;20048;-63
2021/07/24 08:00:26;;;;;;;7.05;5.38;;;;;;;38.29;18.33;94511.25;5076629;28;20048;-62
2021/07/24 08:02:55;;;;;;;6.78;5.30;;;;;;;38.49;18.27;94503.97;5076329;28;20048;-64
2021/07/24 08:05:23;;;;;;;13.95;4.75;;;;;;;38.15;18.17;94513.38;5075887;28;20056;-61
2021/07/24 08:07:50;;;;;;;11.63;5.38;;;;;;;38.91;18.17;94500.41;5081387;28;20473;-63
2021/07/24 08:10:19;;;;;;;7.43;5.50;;;;;;;39.12;17.85;94502.09;5082984;28;20051;-63
2021/07/24 08:12:47;;;;;;;12.27;5.60;;;;;;;39.54;17.23;94500.38;5076289;28;20048;-62
2021/07/24 08:15:14;;;;;;;7.38;5.10;;;;;;;39.26;17.40;94494.38;5075583;28;20052;-62
2021/07/24 08:17:41;;;;;;;7.13;4.85;;;;;;;39.00;17.44;94500.34;5092112;28;20043;-62
2021/07/24 08:20:09;;;;;;;5.43;4.85;;;;;;;38.91;17.42;94500.41;5090905;28;20047;-59
2021/07/24 08:22:36;;;;;;;5.43;4.88;;;;;;;39.31;17.05;94499.97;5076141;28;20430;-62
2021/07/24 08:25:05;;;;;;;5.80;5.20;;;;;;;39.01;17.63;94501.09;5076103;28;20048;-62
2021/07/24 08:27:33;;;;;;;5.32;4.60;;;;;;;38.58;17.91;94494.25;5076137;28;20469;-62
2021/07/24 08:30:00;;;;;;;7.97;6.07;;;;;;;39.66;16.87;94499.34;5075970;28;20048;-65
2021/07/24 08:32:27;;;;;;;6.80;5.25;;;;;;;38.96;17.37;94497.03;5076280;28;20051;-62
2021/07/24 08:34:54;;;;;;;5.22;4.30;;;;;;;38.99;17.63;94495.34;5075025;28;20056;-63
2021/07/24 08:37:21;;;;;;;7.35;4.65;;;;;;;38.81;17.45;94497.00;5075756;28;20044;-63
2021/07/24 08:39:48;;;;;;;5.22;4.47;;;;;;;38.95;16.48;94490.06;5075382;28;20055;-63
2021/07/24 08:42:33;;;;;;;5.88;4.40;;;;;;;39.11;17.01;94497.88;5075802;28;20362;-56
2021/07/24 08:45:00;;;;;;;4.93;4.43;;;;;;;39.36;16.58;94498.56;5075618;28;20040;-59
2021/07/24 08:47:29;;;;;;;5.30;4.30;;;;;;;39.05;16.53;94493.50;5088469;28;20044;-59
2021/07/24 08:50:07;;;;;;;4.90;4.50;;;;;;;39.05;17.08;94490.75;5095325;28;20051;-60
2021/07/24 08:52:35;;;;;;;5.18;4.22;;;;;;;39.10;16.70;94485.41;5096464;28;20044;-59
2021/07/24 08:55:04;;;;;;;5.20;4.07;;;;;;;39.05;16.70;94483.31;5095594;28;20060;-64
2021/07/24 08:57:36;;;;;;;5.47;4.10;;;;;;;38.78;16.81;94491.72;5096022;28;20040;-63
2021/07/24 09:00:08;;;;;;;6.55;3.85;;;;;;;39.17;16.77;94478.81;5095247;28;20362;-59
2021/07/24 09:02:37;;;;;;;4.40;4.00;;;;;;;39.47;16.69;94490.53;5095099;28;20047;-61
2021/07/24 09:05:06;;;;;;;4.28;3.88;;;;;;;39.27;16.98;94488.44;5095785;28;20374;-60
2021/07/24 09:07:35;;;;;;;4.95;4.03;;;;;;;39.72;16.61;94492.00;5095728;28;20442;-61
2021/07/24 09:10:04;;;;;;;;;;;;;;;39.33;16.70;94488.56;5082583;28;20123;-62
2021/07/24 09:12:32;;;;;;;4.28;3.88;;;;;;;39.67;16.69;94487.94;5074784;28;20326;-62
2021/07/24 09:14:59;;;;;;;9.23;4.43;;;;;;;39.68;16.27;94483.97;5074296;28;20048;-59
2021/07/24 09:17:26;;;;;;;4.35;3.95;;;;;;;39.73;16.28;94491.53;5075262;28;20055;-62
2021/07/24 09:19:53;;;;;;;5.40;4.00;;;;;;;39.66;16.57;94491.16;5075048;28;20048;-59
2021/07/24 09:22:26;;;;;;;4.40;4.00;;;;;;;39.62;15.89;94496.81;5074904;28;20049;-61
2021/07/24 09:25:12;;;;;;;5.28;4.10;;;;;;;39.60;15.79;94487.56;5074631;28;20040;-60
2021/07/24 09:27:43;;;;;;;4.13;3.83;;;;;;;39.37;16.06;94491.88;5074995;28;20049;-59
2021/07/24 09:30:33;;;;;;;4.05;3.67;;;;;;;39.22;16.44;94483.63;5074964;28;20040;-56
2021/07/24 09:33:01;;;;;;;5.28;3.97;;;;;;;39.49;16.16;94499.03;5086684;28;20051;-61
2021/07/24 09:35:45;;;;;;;4.53;4.10;;;;;;;39.12;16.46;94491.16;5091391;28;20076;-61
2021/07/24 09:38:27;;;;;;;6.60;4.03;;;;;;;39.13;16.19;94481.75;5075013;28;20051;-61
2021/07/24 09:40:57;;;;;;;4.32;3.53;;;;;;;39.10;16.33;94488.16;5074575;28;20362;-60
2021/07/24 09:43:41;;;;;;;5.75;4.00;;;;;;;39.17;16.90;94478.81;5074784;28;20439;-61
2021/07/24 09:46:19;;;;;;;6.25;4.07;;;;;;;39.30;16.72;94487.53;5074101;28;20052;-61
2021/07/24 09:48:51;;;;;;;12.40;3.92;;;;;;;39.26;16.59;94486.19;5075137;28;20048;-60
2021/07/24 09:51:35;;;;;;;3.97;3.58;;;;;;;39.59;16.73;94491.53;5074650;28;20040;-63
2021/07/24 09:54:03;;;;;;;4.28;3.35;;;;;;;39.60;16.75;94498.50;5074402;28;20106;-54
2021/07/24 09:56:42;;;;;;;6.25;3.53;;;;;;;39.05;17.17;94498.94;5078678;28;20047;-74
2021/07/24 09:59:19;;;;;;;5.95;3.28;;;;;;;39.25;17.82;94493.63;5094495;28;20054;-55
2021/07/24 10:02:04;;;;;;;5.47;3.80;;;;;;;39.72;17.23;94506.44;5094620;28;20047;-67
2021/07/24 10:04:41;;;;;;;4.00;3.60;;;;;;;39.16;17.15;94507.38;5095000;28;20066;-65
2021/07/24 10:07:09;;;;;;;4.88;4.03;;;;;;;39.52;17.88;94513.78;5094859;28;20431;-66
2021/07/24 10:09:40;;;;;;;4.72;3.80;;;;;;;38.73;17.55;94522.38;5095157;28;20044;-65
2021/07/24 10:12:15;;;;;;;4.10;3.70;;;;;;;38.34;17.15;94518.78;5079232;28;20052;-64
2021/07/24 10:14:43;;;;;;;5.32;3.58;;;;;;;38.37;17.16;94515.88;5074557;28;20059;-63
2021/07/24 10:17:13;;;;;;;3.88;3.45;;;;;;;38.12;17.33;94519.75;5073998;28;20359;-67
2021/07/24 10:19:41;;;;;;;4.07;3.30;;;;;;;38.10;17.62;94521.44;5074020;28;20049;-64
2021/07/24 10:22:08;;;;;;;3.90;3.53;;;;;;;38.47;17.31;94532.97;5073204;28;20047;-64
2021/07/24 10:24:35;;;;;;;7.00;3.70;;;;;;;38.23;17.35;94524.75;5073549;28;20074;-63
2021/07/24 10:27:21;;;;;;;8.00;3.55;;;;;;;38.65;17.34;94521.97;5082285;28;20048;-66
2021/07/24 10:30:01;;;;;;;4.53;3.42;;;;;;;38.47;17.08;94528.25;5092617;28;20055;-66
2021/07/24 10:32:36;;;;;;;4.05;3.65;;;;;;;38.18;17.38;94522.63;5092534;28;20047;-65
2021/07/24 10:35:04;;;;;;;3.85;3.50;;;;;;;38.49;16.63;94523.09;5094786;28;20354;-65
2021/07/24 10:37:39;;;;;;;4.10;3.67;;;;;;;38.40;16.19;94525.13;5093826;28;20044;-66
2021/07/24 10:40:20;;;;;;;4.72;3.60;;;;;;;38.18;16.55;94522.63;5094022;28;20048;-65
2021/07/24 10:42:48;;;;;;;3.72;3.42;;;;;;;38.00;16.42;94528.13;5093464;28;20047;-66
2021/07/24 10:45:34;;;;;;;4.50;3.20;;;;;;;37.65;16.47;94531.97;5093783;28;20064;-66
2021/07/24 10:48:16;;;;;;;4.25;3.45;;;;;;;37.53;16.70;94524.75;5074340;28;20056;-68
2021/07/24 10:51:16;;;;;;;5.28;3.72;;;;;;;37.90;17.35;94536.34;5073572;28;20059;-66
2021/07/24 10:54:01;;;;;;;4.55;4.15;;;;;;;37.55;18.17;94535.19;5077848;28;20040;-66
2021/07/24 10:56:39;;;;;;;4.55;3.75;;;;;;;37.32;18.78;94534.59;5077729;28;20040;-67
2021/07/24 10:59:27;;;;;;;5.25;3.75;;;;;;;37.19;18.48;94533.97;5078310;28;20458;-66
2021/07/24 11:01:59;;;;;;;4.18;3.75;;;;;;;36.95;19.28;94541.97;5077431;28;20393;-67
2021/07/24 11:04:43;;;;;;;6.85;3.90;;;;;;;36.87;20.34;94534.56;5078220;28;20047;-66
2021/07/24 11:07:13;;;;;;;4.65;3.83;;;;;;;36.80;20.13;94532.88;5085736;28;20051;-68
2021/07/24 11:09:44;;;;;;;4.88;3.65;;;;;;;36.69;20.15;94538.72;5097762;28;20048;-66
2021/07/24 11:12:14;;;;;;;5.10;3.80;;;;;;;36.62;21.50;94530.84;5098054;28;20046;-67
2021/07/24 11:14:45;;;;;;;4.13;3.73;;;;;;;36.62;21.00;94535.53;5097636;28;20051;-70
2021/07/24 11:17:16;;;;;;;4.88;3.97;;;;;;;36.58;20.46;94530.25;5085268;28;20612;-67
2021/07/24 11:19:49;;;;;;;;;;;;;;;36.33;21.33;94528.50;5078266;28;20079;-66
2021/07/24 11:22:18;;;;;;;4.82;4.30;;;;;;;36.36;20.44;94526.84;5077644;28;19942;-67
2021/07/24 11:25:25;;;;;;;4.20;3.85;;;;;;;36.63;20.04;94526.91;5077446;28;20052;-67
2021/07/24 11:27:53;;;;;;;5.05;4.18;;;;;;;36.34;20.42;94523.81;5094467;28;20051;-67
2021/07/24 11:30:26;;;;;;;4.45;3.90;;;;;;;36.29;19.46;94513.50;5080009;28;20036;-67
2021/07/24 11:32:57;;;;;;;4.03;3.60;;;;;;;36.45;19.57;94521.44;5097517;28;20048;-65
2021/07/24 11:35:28;;;;;;;;;;;;;;;36.58;18.55;94513.91;5097848;28;20067;-65
2021/07/24 11:37:55;;;;;;;4.60;3.85;;;;;;;36.77;18.23;94511.22;5097393;28;19920;-66
2021/07/24 11:40:24;;;;;;;4.25;3.75;;;;;;;36.57;18.53;94515.09;5090947;28;20044;-66
2021/07/24 11:43:06;;;;;;;4.10;3.72;;;;;;;36.81;17.47;94514.56;5076909;28;20055;-64
2021/07/24 11:45:35;;;;;;;4.75;4.05;;;;;;;36.71;17.59;94517.25;5077415;28;20060;-66
2021/07/24 11:48:12;;;;;;;4.40;4.00;;;;;;;36.91;17.74;94507.91;5094112;28;20052;-64
2021/07/24 11:50:41;;;;;;;4.68;4.00;;;;;;;36.75;17.41;94506.97;5097506;28;20115;-66
2021/07/24 11:53:08;;;;;;;4.88;3.58;;;;;;;37.25;17.60;94498.72;5095059;28;20048;-67